sensor_id;sensor_type;location;lat;lon;timestamp;pressure;altitude;pressure_sealevel;temperature;humidity
76337;BME280;65157;50.082;18.178;2023-10-19T00:01:27;98600.54;;;5.09;72.39
76337;BME280;65157;50.082;18.178;2023-10-19T00:03:53;98597.42;;;5.07;72.79
76337;BME280;65157;50.082;18.178;2023-10-19T00:06:20;98594.83;;;5.12;72.59
76337;BME280;65157;50.082;18.178;2023-10-19T00:08:47;98591.56;;;5.10;72.44
76337;BME280;65157;50.082;18.178;2023-10-19T00:11:13;98588.53;;;5.06;72.52
76337;BME280;65157;50.082;18.178;2023-10-19T00:13:40;98582.91;;;5.02;72.47
76337;BME280;65157;50.082;18.178;2023-10-19T00:16:07;98583.95;;;4.96;72.29
76337;BME280;65157;50.082;18.178;2023-10-19T00:18:34;98574.38;;;4.90;72.44
76337;BME280;65157;50.082;18.178;2023-10-19T00:21:01;98581.61;;;4.87;72.32
76337;BME280;65157;50.082;18.178;2023-10-19T00:23:27;98576.33;;;4.83;72.26
76337;BME280;65157;50.082;18.178;2023-10-19T00:25:56;98571.77;;;4.77;72.41
76337;BME280;65157;50.082;18.178;2023-10-19T00:28:22;98572.29;;;4.77;72.48
76337;BME280;65157;50.082;18.178;2023-10-19T00:30:50;98567.69;;;4.73;72.28
76337;BME280;65157;50.082;18.178;2023-10-19T00:33:16;98562.45;;;4.68;72.40
76337;BME280;65157;50.082;18.178;2023-10-19T00:35:43;98552.25;;;4.64;72.67
76337;BME280;65157;50.082;18.178;2023-10-19T00:38:10;98547.20;;;4.63;72.68
76337;BME280;65157;50.082;18.178;2023-10-19T00:40:36;98547.56;;;4.56;72.73
76337;BME280;65157;50.082;18.178;2023-10-19T00:43:03;98544.08;;;4.56;72.80
76337;BME280;65157;50.082;18.178;2023-10-19T00:45:30;98539.83;;;4.58;72.77
76337;BME280;65157;50.082;18.178;2023-10-19T00:47:57;98534.96;;;4.58;72.67
76337;BME280;65157;50.082;18.178;2023-10-19T00:50:24;98532.14;;;4.58;72.82
76337;BME280;65157;50.082;18.178;2023-10-19T00:52:51;98526.67;;;4.60;72.84
76337;BME280;65157;50.082;18.178;2023-10-19T00:55:18;98523.39;;;4.58;72.73
76337;BME280;65157;50.082;18.178;2023-10-19T00:57:45;98515.98;;;4.55;72.95
76337;BME280;65157;50.082;18.178;2023-10-19T01:00:12;98507.60;;;4.55;73.05
76337;BME280;65157;50.082;18.178;2023-10-19T01:02:39;98508.23;;;4.57;73.10
76337;BME280;65157;50.082;18.178;2023-10-19T01:05:06;98501.23;;;4.57;73.19
76337;BME280;65157;50.082;18.178;2023-10-19T01:07:33;98496.75;;;4.55;73.11
76337;BME280;65157;50.082;18.178;2023-10-19T01:10:02;98488.77;;;4.53;72.94
76337;BME280;65157;50.082;18.178;2023-10-19T01:12:29;98481.23;;;4.53;73.16
76337;BME280;65157;50.082;18.178;2023-10-19T01:15:11;98479.56;;;4.58;73.05
76337;BME280;65157;50.082;18.178;2023-10-19T01:17:38;98470.64;;;4.57;72.75
76337;BME280;65157;50.082;18.178;2023-10-19T01:20:10;98468.73;;;4.56;72.94
76337;BME280;65157;50.082;18.178;2023-10-19T01:22:37;98464.44;;;4.54;72.78
76337;BME280;65157;50.082;18.178;2023-10-19T01:25:04;98462.47;;;4.50;72.68
76337;BME280;65157;50.082;18.178;2023-10-19T01:27:31;98456.04;;;4.43;72.60
76337;BME280;65157;50.082;18.178;2023-10-19T01:29:58;98453.44;;;4.37;72.83
76337;BME280;65157;50.082;18.178;2023-10-19T01:32:24;98453.10;;;4.37;72.71
76337;BME280;65157;50.082;18.178;2023-10-19T01:34:54;98450.27;;;4.32;72.54
76337;BME280;65157;50.082;18.178;2023-10-19T01:37:21;98447.52;;;4.30;72.60
76337;BME280;65157;50.082;18.178;2023-10-19T01:39:47;98444.08;;;4.29;72.64
76337;BME280;65157;50.082;18.178;2023-10-19T01:42:14;98443.34;;;4.30;72.87
76337;BME280;65157;50.082;18.178;2023-10-19T01:44:41;98436.77;;;4.28;72.77
76337;BME280;65157;50.082;18.178;2023-10-19T01:47:07;98432.48;;;4.26;72.71
76337;BME280;65157;50.082;18.178;2023-10-19T01:49:34;98433.71;;;4.25;72.60
76337;BME280;65157;50.082;18.178;2023-10-19T01:52:00;98425.92;;;4.23;72.73
76337;BME280;65157;50.082;18.178;2023-10-19T01:54:27;98425.89;;;4.18;72.94
76337;BME280;65157;50.082;18.178;2023-10-19T01:56:55;98426.83;;;4.16;72.79
76337;BME280;65157;50.082;18.178;2023-10-19T01:59:23;98417.41;;;4.15;72.83
76337;BME280;65157;50.082;18.178;2023-10-19T02:01:50;98409.77;;;4.14;72.44
76337;BME280;65157;50.082;18.178;2023-10-19T02:04:17;98402.08;;;4.15;72.72
76337;BME280;65157;50.082;18.178;2023-10-19T02:06:43;98401.03;;;4.15;72.86
76337;BME280;65157;50.082;18.178;2023-10-19T02:09:11;98397.43;;;4.12;72.70
76337;BME280;65157;50.082;18.178;2023-10-19T02:11:38;98395.58;;;4.10;72.68
76337;BME280;65157;50.082;18.178;2023-10-19T02:14:05;98393.74;;;4.07;72.73
76337;BME280;65157;50.082;18.178;2023-10-19T02:16:31;98392.65;;;4.03;72.77
76337;BME280;65157;50.082;18.178;2023-10-19T02:18:58;98384.23;;;3.98;72.85
76337;BME280;65157;50.082;18.178;2023-10-19T02:21:25;98376.27;;;3.96;73.01
76337;BME280;65157;50.082;18.178;2023-10-19T02:23:51;98361.77;;;3.96;72.99
76337;BME280;65157;50.082;18.178;2023-10-19T02:26:19;98359.63;;;3.97;72.93
76337;BME280;65157;50.082;18.178;2023-10-19T02:28:47;98354.30;;;4.00;73.31
76337;BME280;65157;50.082;18.178;2023-10-19T02:31:13;98356.02;;;4.02;73.57
76337;BME280;65157;50.082;18.178;2023-10-19T02:33:41;98355.47;;;4.03;74.05
76337;BME280;65157;50.082;18.178;2023-10-19T02:36:08;98354.46;;;3.95;74.29
76337;BME280;65157;50.082;18.178;2023-10-19T02:38:35;98349.28;;;3.94;74.43
76337;BME280;65157;50.082;18.178;2023-10-19T02:41:02;98341.70;;;3.96;74.71
76337;BME280;65157;50.082;18.178;2023-10-19T02:43:28;98334.92;;;4.01;75.05
76337;BME280;65157;50.082;18.178;2023-10-19T02:45:55;98330.30;;;4.09;75.15
76337;BME280;65157;50.082;18.178;2023-10-19T02:48:21;98322.31;;;4.19;75.10
76337;BME280;65157;50.082;18.178;2023-10-19T02:50:48;98318.77;;;4.26;75.14
76337;BME280;65157;50.082;18.178;2023-10-19T02:53:15;98313.45;;;4.34;75.23
76337;BME280;65157;50.082;18.178;2023-10-19T02:55:41;98315.30;;;4.41;75.15
76337;BME280;65157;50.082;18.178;2023-10-19T02:58:08;98309.04;;;4.46;75.29
76337;BME280;65157;50.082;18.178;2023-10-19T03:00:37;98300.90;;;4.43;75.65
76337;BME280;65157;50.082;18.178;2023-10-19T03:03:04;98307.70;;;4.44;75.55
76337;BME280;65157;50.082;18.178;2023-10-19T03:05:31;98297.65;;;4.42;75.75
76337;BME280;65157;50.082;18.178;2023-10-19T03:07:57;98289.29;;;4.46;75.89
76337;BME280;65157;50.082;18.178;2023-10-19T03:10:24;98291.07;;;4.50;75.86
76337;BME280;65157;50.082;18.178;2023-10-19T03:12:51;98286.16;;;4.56;75.81
76337;BME280;65157;50.082;18.178;2023-10-19T03:15:17;98288.14;;;4.64;75.63
76337;BME280;65157;50.082;18.178;2023-10-19T03:17:44;98292.33;;;4.60;75.89
76337;BME280;65157;50.082;18.178;2023-10-19T03:20:11;98290.39;;;4.54;76.39
76337;BME280;65157;50.082;18.178;2023-10-19T03:22:37;98284.38;;;4.51;76.25
76337;BME280;65157;50.082;18.178;2023-10-19T03:25:06;98285.88;;;4.54;76.38
76337;BME280;65157;50.082;18.178;2023-10-19T03:27:34;98289.54;;;4.54;76.45
76337;BME280;65157;50.082;18.178;2023-10-19T03:30:01;98287.00;;;4.57;76.47
76337;BME280;65157;50.082;18.178;2023-10-19T03:32:29;98276.23;;;4.60;76.47
76337;BME280;65157;50.082;18.178;2023-10-19T03:34:56;98275.06;;;4.64;76.55
76337;BME280;65157;50.082;18.178;2023-10-19T03:37:24;98267.14;;;4.60;76.94
76337;BME280;65157;50.082;18.178;2023-10-19T03:39:51;98267.42;;;4.51;77.08
76337;BME280;65157;50.082;18.178;2023-10-19T03:42:18;98265.55;;;4.50;76.96
76337;BME280;65157;50.082;18.178;2023-10-19T03:44:44;98258.20;;;4.56;76.62
76337;BME280;65157;50.082;18.178;2023-10-19T03:47:11;98256.02;;;4.63;76.67
76337;BME280;65157;50.082;18.178;2023-10-19T03:49:38;98245.35;;;4.74;76.45
76337;BME280;65157;50.082;18.178;2023-10-19T03:52:06;98237.33;;;4.83;76.56
76337;BME280;65157;50.082;18.178;2023-10-19T03:54:32;98234.48;;;4.89;76.50
76337;BME280;65157;50.082;18.178;2023-10-19T03:56:59;98225.42;;;4.98;76.55
76337;BME280;65157;50.082;18.178;2023-10-19T03:59:26;98213.95;;;5.01;76.54
76337;BME280;65157;50.082;18.178;2023-10-19T04:01:53;98210.60;;;5.02;76.71
76337;BME280;65157;50.082;18.178;2023-10-19T04:04:19;98202.83;;;4.99;77.10
76337;BME280;65157;50.082;18.178;2023-10-19T04:06:46;98206.40;;;4.97;77.21
76337;BME280;65157;50.082;18.178;2023-10-19T04:09:14;98205.60;;;4.99;77.12
76337;BME280;65157;50.082;18.178;2023-10-19T04:11:40;98202.46;;;5.04;76.92
76337;BME280;65157;50.082;18.178;2023-10-19T04:14:07;98197.01;;;5.10;77.02
76337;BME280;65157;50.082;18.178;2023-10-19T04:16:34;98193.41;;;5.17;76.77
76337;BME280;65157;50.082;18.178;2023-10-19T04:19:00;98190.16;;;5.25;76.27
76337;BME280;65157;50.082;18.178;2023-10-19T04:21:27;98186.16;;;5.33;76.18
76337;BME280;65157;50.082;18.178;2023-10-19T04:23:53;98184.31;;;5.40;75.91
76337;BME280;65157;50.082;18.178;2023-10-19T04:26:20;98186.81;;;5.43;75.91
76337;BME280;65157;50.082;18.178;2023-10-19T04:28:46;98180.41;;;5.46;75.90
76337;BME280;65157;50.082;18.178;2023-10-19T04:31:13;98182.21;;;5.49;75.80
76337;BME280;65157;50.082;18.178;2023-10-19T04:33:40;98167.70;;;5.48;75.60
76337;BME280;65157;50.082;18.178;2023-10-19T04:36:06;98165.95;;;5.57;75.41
76337;BME280;65157;50.082;18.178;2023-10-19T04:38:33;98159.61;;;5.62;75.14
76337;BME280;65157;50.082;18.178;2023-10-19T04:41:10;98159.09;;;5.66;74.94
76337;BME280;65157;50.082;18.178;2023-10-19T04:43:38;98154.26;;;5.69;75.00
76337;BME280;65157;50.082;18.178;2023-10-19T04:46:07;98150.02;;;5.70;74.85
76337;BME280;65157;50.082;18.178;2023-10-19T04:48:34;98148.16;;;5.69;75.12
76337;BME280;65157;50.082;18.178;2023-10-19T04:51:01;98137.70;;;5.63;75.20
76337;BME280;65157;50.082;18.178;2023-10-19T04:53:27;98137.24;;;5.62;75.20
76337;BME280;65157;50.082;18.178;2023-10-19T04:55:54;98137.77;;;5.57;75.55
76337;BME280;65157;50.082;18.178;2023-10-19T04:58:21;98145.11;;;5.62;75.58
76337;BME280;65157;50.082;18.178;2023-10-19T05:00:47;98143.98;;;5.68;75.47
76337;BME280;65157;50.082;18.178;2023-10-19T05:03:14;98134.13;;;5.74;75.20
76337;BME280;65157;50.082;18.178;2023-10-19T05:05:40;98122.84;;;5.76;75.10
76337;BME280;65157;50.082;18.178;2023-10-19T05:08:07;98116.33;;;5.77;74.80
76337;BME280;65157;50.082;18.178;2023-10-19T05:10:33;98113.13;;;5.78;74.80
76337;BME280;65157;50.082;18.178;2023-10-19T05:13:00;98113.59;;;5.76;74.89
76337;BME280;65157;50.082;18.178;2023-10-19T05:15:27;98116.45;;;5.78;74.95
76337;BME280;65157;50.082;18.178;2023-10-19T05:17:56;98117.65;;;5.79;75.24
76337;BME280;65157;50.082;18.178;2023-10-19T05:20:22;98113.09;;;5.79;75.14
76337;BME280;65157;50.082;18.178;2023-10-19T05:22:49;98115.80;;;5.86;75.09
76337;BME280;65157;50.082;18.178;2023-10-19T05:25:15;98121.59;;;5.90;75.15
76337;BME280;65157;50.082;18.178;2023-10-19T05:27:42;98113.67;;;5.87;75.19
76337;BME280;65157;50.082;18.178;2023-10-19T05:30:09;98121.04;;;5.90;74.56
76337;BME280;65157;50.082;18.178;2023-10-19T05:32:37;98123.19;;;5.93;74.40
76337;BME280;65157;50.082;18.178;2023-10-19T05:35:04;98121.08;;;5.94;74.33
76337;BME280;65157;50.082;18.178;2023-10-19T05:37:31;98120.95;;;5.97;74.04
76337;BME280;65157;50.082;18.178;2023-10-19T05:39:58;98114.90;;;5.99;73.78
76337;BME280;65157;50.082;18.178;2023-10-19T05:42:25;98113.04;;;6.01;73.68
76337;BME280;65157;50.082;18.178;2023-10-19T05:44:51;98116.56;;;6.05;73.58
76337;BME280;65157;50.082;18.178;2023-10-19T05:47:18;98103.41;;;6.10;73.77
76337;BME280;65157;50.082;18.178;2023-10-19T05:49:45;98102.40;;;6.13;73.95
76337;BME280;65157;50.082;18.178;2023-10-19T05:52:12;98103.11;;;6.12;74.25
76337;BME280;65157;50.082;18.178;2023-10-19T05:54:39;98113.29;;;6.16;74.19
76337;BME280;65157;50.082;18.178;2023-10-19T05:57:06;98113.55;;;6.18;74.10
76337;BME280;65157;50.082;18.178;2023-10-19T05:59:32;98109.45;;;6.20;73.84
76337;BME280;65157;50.082;18.178;2023-10-19T06:02:00;98103.23;;;6.21;73.81
76337;BME280;65157;50.082;18.178;2023-10-19T06:04:26;98097.41;;;6.23;73.99
76337;BME280;65157;50.082;18.178;2023-10-19T06:06:53;98097.98;;;6.26;74.66
76337;BME280;65157;50.082;18.178;2023-10-19T06:09:20;98104.77;;;6.31;74.42
76337;BME280;65157;50.082;18.178;2023-10-19T06:11:47;98101.49;;;6.38;74.28
76337;BME280;65157;50.082;18.178;2023-10-19T06:14:14;98096.35;;;6.44;74.26
76337;BME280;65157;50.082;18.178;2023-10-19T06:16:40;98095.48;;;6.47;74.21
76337;BME280;65157;50.082;18.178;2023-10-19T06:19:07;98094.32;;;6.50;74.49
76337;BME280;65157;50.082;18.178;2023-10-19T06:21:34;98086.08;;;6.49;74.80
76337;BME280;65157;50.082;18.178;2023-10-19T06:24:01;98081.14;;;6.50;74.63
76337;BME280;65157;50.082;18.178;2023-10-19T06:26:27;98081.73;;;6.49;74.60
76337;BME280;65157;50.082;18.178;2023-10-19T06:28:54;98077.77;;;6.47;74.62
76337;BME280;65157;50.082;18.178;2023-10-19T06:31:21;98071.68;;;6.46;74.82
76337;BME280;65157;50.082;18.178;2023-10-19T06:33:48;98068.91;;;6.49;74.89
76337;BME280;65157;50.082;18.178;2023-10-19T06:36:14;98065.98;;;6.52;74.53
76337;BME280;65157;50.082;18.178;2023-10-19T06:38:41;98063.20;;;6.56;74.52
76337;BME280;65157;50.082;18.178;2023-10-19T06:41:12;98061.69;;;6.58;74.29
76337;BME280;65157;50.082;18.178;2023-10-19T06:43:39;98050.20;;;6.60;74.38
76337;BME280;65157;50.082;18.178;2023-10-19T06:46:07;98047.20;;;6.60;74.59
76337;BME280;65157;50.082;18.178;2023-10-19T06:48:34;98036.58;;;6.63;74.68
76337;BME280;65157;50.082;18.178;2023-10-19T06:51:00;98039.11;;;6.64;74.94
76337;BME280;65157;50.082;18.178;2023-10-19T06:53:27;98035.14;;;6.67;75.01
76337;BME280;65157;50.082;18.178;2023-10-19T06:55:54;98034.37;;;6.69;74.85
76337;BME280;65157;50.082;18.178;2023-10-19T06:58:21;98041.63;;;6.75;74.63
76337;BME280;65157;50.082;18.178;2023-10-19T07:00:47;98031.39;;;6.80;74.56
76337;BME280;65157;50.082;18.178;2023-10-19T07:03:14;98023.25;;;6.85;74.65
76337;BME280;65157;50.082;18.178;2023-10-19T07:05:40;98030.02;;;6.90;74.61
76337;BME280;65157;50.082;18.178;2023-10-19T07:08:07;98035.35;;;6.93;74.64
76337;BME280;65157;50.082;18.178;2023-10-19T07:10:34;98034.21;;;6.94;74.40
76337;BME280;65157;50.082;18.178;2023-10-19T07:13:01;98027.75;;;6.98;74.52
76337;BME280;65157;50.082;18.178;2023-10-19T07:15:27;98018.40;;;6.99;74.49
76337;BME280;65157;50.082;18.178;2023-10-19T07:17:54;98011.46;;;7.01;74.62
76337;BME280;65157;50.082;18.178;2023-10-19T07:20:21;98002.11;;;7.02;74.78
76337;BME280;65157;50.082;18.178;2023-10-19T07:22:48;97997.95;;;7.01;74.96
76337;BME280;65157;50.082;18.178;2023-10-19T07:25:15;97992.75;;;7.03;75.36
76337;BME280;65157;50.082;18.178;2023-10-19T07:27:42;97995.80;;;7.05;75.48
76337;BME280;65157;50.082;18.178;2023-10-19T07:30:09;97997.61;;;7.07;75.41
76337;BME280;65157;50.082;18.178;2023-10-19T07:32:37;98000.14;;;7.13;75.09
76337;BME280;65157;50.082;18.178;2023-10-19T07:35:05;98002.97;;;7.20;75.35
76337;BME280;65157;50.082;18.178;2023-10-19T07:37:33;98001.97;;;7.26;75.36
76337;BME280;65157;50.082;18.178;2023-10-19T07:40:00;97992.61;;;7.31;75.57
76337;BME280;65157;50.082;18.178;2023-10-19T07:42:26;97992.58;;;7.35;75.47
76337;BME280;65157;50.082;18.178;2023-10-19T07:44:53;97997.38;;;7.40;75.18
76337;BME280;65157;50.082;18.178;2023-10-19T07:47:20;98003.66;;;7.45;75.31
76337;BME280;65157;50.082;18.178;2023-10-19T07:49:46;98005.71;;;7.50;75.50
76337;BME280;65157;50.082;18.178;2023-10-19T07:52:13;98005.09;;;7.52;75.44
76337;BME280;65157;50.082;18.178;2023-10-19T07:54:39;97998.65;;;7.54;75.28
76337;BME280;65157;50.082;18.178;2023-10-19T07:57:06;97997.88;;;7.59;75.82
76337;BME280;65157;50.082;18.178;2023-10-19T07:59:33;98002.89;;;7.64;75.20
76337;BME280;65157;50.082;18.178;2023-10-19T08:02:00;98001.34;;;7.67;75.15
76337;BME280;65157;50.082;18.178;2023-10-19T08:04:27;98009.31;;;7.76;75.30
76337;BME280;65157;50.082;18.178;2023-10-19T08:06:53;98010.80;;;7.78;75.19
76337;BME280;65157;50.082;18.178;2023-10-19T08:09:20;98005.88;;;7.77;75.28
76337;BME280;65157;50.082;18.178;2023-10-19T08:11:46;98001.02;;;7.80;75.31
76337;BME280;65157;50.082;18.178;2023-10-19T08:14:13;97997.74;;;7.82;75.10
76337;BME280;65157;50.082;18.178;2023-10-19T08:16:40;97990.04;;;7.85;75.40
76337;BME280;65157;50.082;18.178;2023-10-19T08:19:07;97977.74;;;7.88;75.64
76337;BME280;65157;50.082;18.178;2023-10-19T08:21:34;97969.20;;;7.87;75.73
76337;BME280;65157;50.082;18.178;2023-10-19T08:24:00;97967.91;;;7.88;75.71
76337;BME280;65157;50.082;18.178;2023-10-19T08:26:27;97965.69;;;7.90;75.48
76337;BME280;65157;50.082;18.178;2023-10-19T08:28:53;97961.05;;;7.92;75.55
76337;BME280;65157;50.082;18.178;2023-10-19T08:31:20;97958.69;;;7.97;75.77
76337;BME280;65157;50.082;18.178;2023-10-19T08:33:47;97953.45;;;7.95;75.64
76337;BME280;65157;50.082;18.178;2023-10-19T08:36:20;97955.41;;;7.95;75.36
76337;BME280;65157;50.082;18.178;2023-10-19T08:38:47;97955.27;;;7.99;75.08
76337;BME280;65157;50.082;18.178;2023-10-19T08:41:15;97950.05;;;8.04;75.05
76337;BME280;65157;50.082;18.178;2023-10-19T08:43:42;97942.16;;;8.03;74.90
76337;BME280;65157;50.082;18.178;2023-10-19T08:46:09;97945.85;;;8.10;75.01
76337;BME280;65157;50.082;18.178;2023-10-19T08:48:36;97948.79;;;8.14;74.85
76337;BME280;65157;50.082;18.178;2023-10-19T08:51:09;97948.66;;;8.17;74.59
76337;BME280;65157;50.082;18.178;2023-10-19T08:53:37;97952.98;;;8.21;75.06
76337;BME280;65157;50.082;18.178;2023-10-19T08:56:04;97947.73;;;8.21;74.66
76337;BME280;65157;50.082;18.178;2023-10-19T08:58:30;97950.84;;;8.25;74.68
76337;BME280;65157;50.082;18.178;2023-10-19T09:00:58;97944.29;;;8.30;74.33
76337;BME280;65157;50.082;18.178;2023-10-19T09:03:24;97942.49;;;8.34;74.39
76337;BME280;65157;50.082;18.178;2023-10-19T09:05:51;97943.73;;;8.36;74.61
76337;BME280;65157;50.082;18.178;2023-10-19T09:08:18;97943.09;;;8.39;74.63
76337;BME280;65157;50.082;18.178;2023-10-19T09:10:48;97939.39;;;8.42;74.88
76337;BME280;65157;50.082;18.178;2023-10-19T09:13:15;97932.20;;;8.45;74.83
76337;BME280;65157;50.082;18.178;2023-10-19T09:15:42;97933.18;;;8.52;75.22
76337;BME280;65157;50.082;18.178;2023-10-19T09:18:25;97936.92;;;8.59;74.68
76337;BME280;65157;50.082;18.178;2023-10-19T09:20:52;97934.66;;;8.64;74.53
76337;BME280;65157;50.082;18.178;2023-10-19T09:23:21;97934.33;;;8.67;74.74
76337;BME280;65157;50.082;18.178;2023-10-19T09:25:51;97931.80;;;8.71;74.83
76337;BME280;65157;50.082;18.178;2023-10-19T09:28:23;97925.16;;;8.73;74.92
76337;BME280;65157;50.082;18.178;2023-10-19T09:30:50;97922.94;;;8.76;75.08
76337;BME280;65157;50.082;18.178;2023-10-19T09:33:17;97914.18;;;8.78;75.48
76337;BME280;65157;50.082;18.178;2023-10-19T09:35:46;97906.52;;;8.83;75.59
76337;BME280;65157;50.082;18.178;2023-10-19T09:38:15;97903.23;;;8.82;75.89
76337;BME280;65157;50.082;18.178;2023-10-19T09:40:42;97904.99;;;8.79;76.26
76337;BME280;65157;50.082;18.178;2023-10-19T09:43:15;97898.99;;;8.76;76.50
76337;BME280;65157;50.082;18.178;2023-10-19T09:45:45;97894.98;;;8.81;76.74
76337;BME280;65157;50.082;18.178;2023-10-19T09:48:15;97891.66;;;8.84;77.11
76337;BME280;65157;50.082;18.178;2023-10-19T09:50:45;97887.24;;;8.91;77.45
76337;BME280;65157;50.082;18.178;2023-10-19T09:53:18;97882.55;;;8.98;77.49
76337;BME280;65157;50.082;18.178;2023-10-19T09:55:47;97878.15;;;9.04;77.85
76337;BME280;65157;50.082;18.178;2023-10-19T09:58:16;97877.54;;;9.12;77.85
76337;BME280;65157;50.082;18.178;2023-10-19T10:00:44;97875.10;;;9.24;77.52
76337;BME280;65157;50.082;18.178;2023-10-19T10:03:43;97874.41;;;9.32;77.68
76337;BME280;65157;50.082;18.178;2023-10-19T10:06:11;97872.55;;;9.37;77.33
76337;BME280;65157;50.082;18.178;2023-10-19T10:08:39;97871.48;;;9.40;77.27
76337;BME280;65157;50.082;18.178;2023-10-19T10:11:23;97863.45;;;9.42;77.02
76337;BME280;65157;50.082;18.178;2023-10-19T10:13:50;97859.81;;;9.44;77.11
76337;BME280;65157;50.082;18.178;2023-10-19T10:16:19;97853.98;;;9.47;77.15
76337;BME280;65157;50.082;18.178;2023-10-19T10:18:49;97848.98;;;9.51;77.13
76337;BME280;65157;50.082;18.178;2023-10-19T10:21:18;97841.13;;;9.53;77.47
76337;BME280;65157;50.082;18.178;2023-10-19T10:23:47;97835.26;;;9.54;77.62
76337;BME280;65157;50.082;18.178;2023-10-19T10:26:16;97838.58;;;9.57;77.82
76337;BME280;65157;50.082;18.178;2023-10-19T10:28:49;97829.44;;;9.62;77.87
76337;BME280;65157;50.082;18.178;2023-10-19T10:31:35;97818.02;;;9.68;77.96
76337;BME280;65157;50.082;18.178;2023-10-19T10:34:08;97812.67;;;9.72;77.78
76337;BME280;65157;50.082;18.178;2023-10-19T10:37:11;97805.42;;;9.72;77.79
76337;BME280;65157;50.082;18.178;2023-10-19T10:39:39;97803.02;;;9.71;77.94
76337;BME280;65157;50.082;18.178;2023-10-19T10:42:09;97801.98;;;9.71;78.20
76337;BME280;65157;50.082;18.178;2023-10-19T10:44:47;97797.31;;;9.72;78.11
76337;BME280;65157;50.082;18.178;2023-10-19T10:47:18;97793.52;;;9.74;78.48
76337;BME280;65157;50.082;18.178;2023-10-19T10:52:30;97787.08;;;9.84;78.77
76337;BME280;65157;50.082;18.178;2023-10-19T10:57:34;97788.68;;;9.86;78.80
76337;BME280;65157;50.082;18.178;2023-10-19T11:02:28;97788.16;;;9.94;78.61
76337;BME280;65157;50.082;18.178;2023-10-19T11:04:55;97781.75;;;9.95;78.90
76337;BME280;65157;50.082;18.178;2023-10-19T11:07:21;97778.58;;;10.01;78.98
76337;BME280;65157;50.082;18.178;2023-10-19T11:09:48;97772.55;;;10.04;78.86
76337;BME280;65157;50.082;18.178;2023-10-19T11:12:15;97771.37;;;10.06;78.75
76337;BME280;65157;50.082;18.178;2023-10-19T11:14:55;97770.80;;;10.09;78.98
76337;BME280;65157;50.082;18.178;2023-10-19T11:17:22;97767.02;;;10.05;78.79
76337;BME280;65157;50.082;18.178;2023-10-19T11:19:49;97766.25;;;10.06;78.86
76337;BME280;65157;50.082;18.178;2023-10-19T11:22:16;97764.70;;;10.08;78.93
76337;BME280;65157;50.082;18.178;2023-10-19T11:24:43;97763.85;;;10.11;78.60
76337;BME280;65157;50.082;18.178;2023-10-19T11:27:09;97763.21;;;10.15;78.78
76337;BME280;65157;50.082;18.178;2023-10-19T11:29:36;97752.27;;;10.18;78.64
76337;BME280;65157;50.082;18.178;2023-10-19T11:32:03;97748.30;;;10.20;78.73
76337;BME280;65157;50.082;18.178;2023-10-19T11:34:29;97744.15;;;10.21;78.78
76337;BME280;65157;50.082;18.178;2023-10-19T11:36:56;97737.02;;;10.22;78.88
76337;BME280;65157;50.082;18.178;2023-10-19T11:39:23;97731.40;;;10.25;79.05
76337;BME280;65157;50.082;18.178;2023-10-19T11:41:50;97728.73;;;10.23;79.39
76337;BME280;65157;50.082;18.178;2023-10-19T11:44:16;97728.77;;;10.22;79.44
76337;BME280;65157;50.082;18.178;2023-10-19T11:46:43;97720.61;;;10.20;79.73
76337;BME280;65157;50.082;18.178;2023-10-19T11:49:09;97717.94;;;10.23;79.63
76337;BME280;65157;50.082;18.178;2023-10-19T11:51:36;97718.05;;;10.27;79.65
76337;BME280;65157;50.082;18.178;2023-10-19T11:54:04;97720.23;;;10.31;79.50
76337;BME280;65157;50.082;18.178;2023-10-19T11:56:31;97712.82;;;10.34;79.57
76337;BME280;65157;50.082;18.178;2023-10-19T11:58:58;97711.91;;;10.34;79.53
76337;BME280;65157;50.082;18.178;2023-10-19T12:01:24;97711.89;;;10.35;79.86
76337;BME280;65157;50.082;18.178;2023-10-19T12:03:51;97712.89;;;10.33;79.95
76337;BME280;65157;50.082;18.178;2023-10-19T12:06:18;97704.77;;;10.36;79.79
76337;BME280;65157;50.082;18.178;2023-10-19T12:08:45;97702.30;;;10.44;79.76
76337;BME280;65157;50.082;18.178;2023-10-19T12:11:12;97697.05;;;10.48;80.05
76337;BME280;65157;50.082;18.178;2023-10-19T12:13:38;97693.88;;;10.53;79.73
76337;BME280;65157;50.082;18.178;2023-10-19T12:16:05;97689.52;;;10.53;79.92
76337;BME280;65157;50.082;18.178;2023-10-19T12:18:32;97689.69;;;10.47;79.72
76337;BME280;65157;50.082;18.178;2023-10-19T12:20:58;97677.13;;;10.43;80.20
76337;BME280;65157;50.082;18.178;2023-10-19T12:23:26;97671.91;;;10.42;80.40
76337;BME280;65157;50.082;18.178;2023-10-19T12:25:52;97671.46;;;10.40;80.71
76337;BME280;65157;50.082;18.178;2023-10-19T12:28:20;97665.05;;;10.44;80.48
76337;BME280;65157;50.082;18.178;2023-10-19T12:30:47;97664.14;;;10.49;80.29
76337;BME280;65157;50.082;18.178;2023-10-19T12:33:14;97656.79;;;10.54;80.26
76337;BME280;65157;50.082;18.178;2023-10-19T12:35:41;97649.99;;;10.58;80.26
76337;BME280;65157;50.082;18.178;2023-10-19T12:38:08;97646.64;;;10.63;80.33
76337;BME280;65157;50.082;18.178;2023-10-19T12:40:35;97645.56;;;10.66;80.36
76337;BME280;65157;50.082;18.178;2023-10-19T12:43:04;97641.85;;;10.69;80.16
76337;BME280;65157;50.082;18.178;2023-10-19T12:45:30;97634.59;;;10.71;80.23
76337;BME280;65157;50.082;18.178;2023-10-19T12:47:57;97638.83;;;10.76;80.07
76337;BME280;65157;50.082;18.178;2023-10-19T12:50:23;97636.65;;;10.83;80.17
76337;BME280;65157;50.082;18.178;2023-10-19T12:52:50;97633.32;;;10.88;79.97
76337;BME280;65157;50.082;18.178;2023-10-19T12:55:18;97631.00;;;10.92;79.89
76337;BME280;65157;50.082;18.178;2023-10-19T12:57:44;97621.06;;;10.99;79.97
76337;BME280;65157;50.082;18.178;2023-10-19T13:00:11;97611.13;;;10.99;80.26
76337;BME280;65157;50.082;18.178;2023-10-19T13:02:38;97607.25;;;10.97;80.58
76337;BME280;65157;50.082;18.178;2023-10-19T13:05:05;97600.17;;;10.94;80.83
76337;BME280;65157;50.082;18.178;2023-10-19T13:07:31;97595.36;;;10.90;80.71